sensor_id;sensor_type;location;lat;lon;timestamp;P1;durP1;ratioP1;P2;durP2;ratioP2
49460;SDS011;35355;49.198;-0.368;2023-05-15T00:00:30;34.05;;;15.38;;
49460;SDS011;35355;49.198;-0.368;2023-05-15T00:02:56;30.52;;;15.10;;
49460;SDS011;35355;49.198;-0.368;2023-05-15T00:05:21;33.05;;;15.60;;
49460;SDS011;35355;49.198;-0.368;2023-05-15T00:07:47;27.70;;;14.43;;
49460;SDS011;35355;49.198;-0.368;2023-05-15T00:10:12;27.05;;;14.73;;
49460;SDS011;35355;49.198;-0.368;2023-05-15T00:12:38;29.70;;;13.80;;
49460;SDS011;35355;49.198;-0.368;2023-05-15T00:15:03;26.75;;;14.18;;
49460;SDS011;35355;49.198;-0.368;2023-05-15T00:17:29;30.15;;;13.85;;
49460;SDS011;35355;49.198;-0.368;2023-05-15T00:19:54;26.67;;;14.60;;
49460;SDS011;35355;49.198;-0.368;2023-05-15T00:22:21;26.20;;;14.70;;
49460;SDS011;35355;49.198;-0.368;2023-05-15T00:24:48;29.88;;;13.82;;
49460;SDS011;35355;49.198;-0.368;2023-05-15T00:27:13;25.70;;;13.93;;
49460;SDS011;35355;49.198;-0.368;2023-05-15T00:29:38;25.27;;;13.40;;
49460;SDS011;35355;49.198;-0.368;2023-05-15T00:32:04;28.02;;;13.57;;
49460;SDS011;35355;49.198;-0.368;2023-05-15T00:34:29;21.92;;;12.55;;
49460;SDS011;35355;49.198;-0.368;2023-05-15T00:36:55;33.90;;;15.68;;
49460;SDS011;35355;49.198;-0.368;2023-05-15T00:39:20;27.05;;;13.82;;
49460;SDS011;35355;49.198;-0.368;2023-05-15T00:41:45;27.00;;;14.05;;
49460;SDS011;35355;49.198;-0.368;2023-05-15T00:44:12;27.92;;;14.25;;
49460;SDS011;35355;49.198;-0.368;2023-05-15T00:46:40;25.33;;;13.27;;
49460;SDS011;35355;49.198;-0.368;2023-05-15T00:49:07;30.45;;;15.00;;
49460;SDS011;35355;49.198;-0.368;2023-05-15T00:51:37;30.10;;;15.07;;
49460;SDS011;35355;49.198;-0.368;2023-05-15T00:54:04;31.27;;;14.25;;
49460;SDS011;35355;49.198;-0.368;2023-05-15T00:56:31;23.58;;;13.90;;
49460;SDS011;35355;49.198;-0.368;2023-05-15T00:58:58;26.38;;;14.20;;
49460;SDS011;35355;49.198;-0.368;2023-05-15T01:01:26;24.23;;;12.90;;
49460;SDS011;35355;49.198;-0.368;2023-05-15T01:03:52;26.33;;;13.68;;
49460;SDS011;35355;49.198;-0.368;2023-05-15T01:06:18;26.98;;;13.25;;
49460;SDS011;35355;49.198;-0.368;2023-05-15T01:11:13;27.30;;;14.05;;
49460;SDS011;35355;49.198;-0.368;2023-05-15T01:13:40;26.52;;;14.32;;
49460;SDS011;35355;49.198;-0.368;2023-05-15T01:16:05;29.98;;;13.98;;
49460;SDS011;35355;49.198;-0.368;2023-05-15T01:18:32;24.67;;;13.95;;
49460;SDS011;35355;49.198;-0.368;2023-05-15T01:29:36;23.17;;;13.45;;
49460;SDS011;35355;49.198;-0.368;2023-05-15T01:31:56;26.95;;;14.02;;
49460;SDS011;35355;49.198;-0.368;2023-05-15T01:34:32;29.38;;;14.10;;
49460;SDS011;35355;49.198;-0.368;2023-05-15T01:37:02;24.85;;;13.45;;
49460;SDS011;35355;49.198;-0.368;2023-05-15T01:39:28;25.30;;;14.75;;
49460;SDS011;35355;49.198;-0.368;2023-05-15T01:42:07;27.98;;;13.93;;
49460;SDS011;35355;49.198;-0.368;2023-05-15T01:44:39;24.02;;;13.90;;
49460;SDS011;35355;49.198;-0.368;2023-05-15T01:47:12;26.60;;;14.02;;
49460;SDS011;35355;49.198;-0.368;2023-05-15T01:49:38;23.00;;;13.85;;
49460;SDS011;35355;49.198;-0.368;2023-05-15T01:54:50;25.75;;;13.30;;
49460;SDS011;35355;49.198;-0.368;2023-05-15T01:57:17;25.13;;;12.70;;
49460;SDS011;35355;49.198;-0.368;2023-05-15T01:59:44;26.65;;;13.57;;
49460;SDS011;35355;49.198;-0.368;2023-05-15T02:02:10;26.50;;;15.02;;
49460;SDS011;35355;49.198;-0.368;2023-05-15T02:04:37;24.75;;;13.15;;
49460;SDS011;35355;49.198;-0.368;2023-05-15T02:07:04;29.38;;;13.60;;
49460;SDS011;35355;49.198;-0.368;2023-05-15T02:09:30;26.65;;;14.07;;
49460;SDS011;35355;49.198;-0.368;2023-05-15T02:11:57;26.42;;;13.98;;
49460;SDS011;35355;49.198;-0.368;2023-05-15T02:14:27;27.83;;;14.10;;
49460;SDS011;35355;49.198;-0.368;2023-05-15T02:16:54;23.58;;;13.07;;
49460;SDS011;35355;49.198;-0.368;2023-05-15T02:19:20;29.77;;;15.85;;
49460;SDS011;35355;49.198;-0.368;2023-05-15T02:21:46;27.92;;;14.15;;
49460;SDS011;35355;49.198;-0.368;2023-05-15T02:24:11;21.40;;;12.98;;
49460;SDS011;35355;49.198;-0.368;2023-05-15T02:37:03;28.75;;;13.32;;
49460;SDS011;35355;49.198;-0.368;2023-05-15T02:39:31;25.30;;;13.60;;
49460;SDS011;35355;49.198;-0.368;2023-05-15T02:41:57;27.10;;;13.70;;
49460;SDS011;35355;49.198;-0.368;2023-05-15T02:44:24;25.08;;;14.50;;
49460;SDS011;35355;49.198;-0.368;2023-05-15T02:46:50;24.33;;;13.32;;
49460;SDS011;35355;49.198;-0.368;2023-05-15T02:49:17;22.48;;;13.05;;
49460;SDS011;35355;49.198;-0.368;2023-05-15T02:51:43;24.63;;;13.57;;
49460;SDS011;35355;49.198;-0.368;2023-05-15T02:54:08;25.98;;;13.18;;
49460;SDS011;35355;49.198;-0.368;2023-05-15T02:56:35;22.10;;;12.77;;
49460;SDS011;35355;49.198;-0.368;2023-05-15T02:59:00;20.75;;;12.25;;
49460;SDS011;35355;49.198;-0.368;2023-05-15T03:01:26;22.10;;;12.10;;
49460;SDS011;35355;49.198;-0.368;2023-05-15T03:03:51;25.10;;;12.75;;
49460;SDS011;35355;49.198;-0.368;2023-05-15T03:06:16;21.15;;;12.23;;
49460;SDS011;35355;49.198;-0.368;2023-05-15T03:08:42;20.75;;;12.13;;
49460;SDS011;35355;49.198;-0.368;2023-05-15T03:11:08;21.33;;;13.07;;
49460;SDS011;35355;49.198;-0.368;2023-05-15T03:13:33;26.88;;;13.00;;
49460;SDS011;35355;49.198;-0.368;2023-05-15T03:15:59;21.05;;;12.63;;
49460;SDS011;35355;49.198;-0.368;2023-05-15T03:18:25;26.17;;;13.57;;
49460;SDS011;35355;49.198;-0.368;2023-05-15T03:20:50;20.42;;;12.05;;
49460;SDS011;35355;49.198;-0.368;2023-05-15T03:23:17;22.52;;;12.43;;
49460;SDS011;35355;49.198;-0.368;2023-05-15T03:25:42;18.55;;;11.70;;
49460;SDS011;35355;49.198;-0.368;2023-05-15T03:28:07;21.73;;;11.45;;
49460;SDS011;35355;49.198;-0.368;2023-05-15T03:30:33;19.30;;;10.77;;
49460;SDS011;35355;49.198;-0.368;2023-05-15T03:32:58;20.75;;;11.00;;
49460;SDS011;35355;49.198;-0.368;2023-05-15T03:35:24;20.98;;;11.07;;
49460;SDS011;35355;49.198;-0.368;2023-05-15T03:37:50;18.30;;;10.70;;
49460;SDS011;35355;49.198;-0.368;2023-05-15T03:40:15;21.80;;;11.52;;
49460;SDS011;35355;49.198;-0.368;2023-05-15T03:42:40;20.77;;;11.07;;
49460;SDS011;35355;49.198;-0.368;2023-05-15T03:45:06;20.55;;;11.10;;
49460;SDS011;35355;49.198;-0.368;2023-05-15T03:47:32;19.35;;;11.50;;
49460;SDS011;35355;49.198;-0.368;2023-05-15T03:49:57;21.02;;;11.15;;
49460;SDS011;35355;49.198;-0.368;2023-05-15T03:52:23;20.33;;;11.48;;
49460;SDS011;35355;49.198;-0.368;2023-05-15T03:54:48;24.85;;;11.45;;
49460;SDS011;35355;49.198;-0.368;2023-05-15T03:57:14;25.50;;;11.63;;
49460;SDS011;35355;49.198;-0.368;2023-05-15T03:59:39;24.13;;;11.85;;
49460;SDS011;35355;49.198;-0.368;2023-05-15T04:02:05;20.02;;;10.90;;
49460;SDS011;35355;49.198;-0.368;2023-05-15T04:04:31;17.98;;;11.15;;
49460;SDS011;35355;49.198;-0.368;2023-05-15T04:06:56;20.95;;;11.55;;
49460;SDS011;35355;49.198;-0.368;2023-05-15T04:09:21;21.73;;;10.73;;
49460;SDS011;35355;49.198;-0.368;2023-05-15T04:11:47;20.52;;;11.02;;
49460;SDS011;35355;49.198;-0.368;2023-05-15T04:14:12;19.98;;;11.40;;
49460;SDS011;35355;49.198;-0.368;2023-05-15T04:16:37;22.42;;;12.02;;
49460;SDS011;35355;49.198;-0.368;2023-05-15T04:19:03;22.42;;;12.18;;
49460;SDS011;35355;49.198;-0.368;2023-05-15T04:21:28;27.67;;;12.23;;
49460;SDS011;35355;49.198;-0.368;2023-05-15T04:23:54;24.42;;;12.35;;
49460;SDS011;35355;49.198;-0.368;2023-05-15T04:26:19;21.88;;;12.30;;
49460;SDS011;35355;49.198;-0.368;2023-05-15T04:28:45;23.40;;;13.15;;
49460;SDS011;35355;49.198;-0.368;2023-05-15T04:31:10;21.38;;;10.88;;
49460;SDS011;35355;49.198;-0.368;2023-05-15T04:33:36;29.48;;;12.70;;
49460;SDS011;35355;49.198;-0.368;2023-05-15T04:36:03;24.77;;;12.68;;
49460;SDS011;35355;49.198;-0.368;2023-05-15T04:38:30;25.38;;;12.98;;
49460;SDS011;35355;49.198;-0.368;2023-05-15T04:40:55;28.73;;;14.45;;
49460;SDS011;35355;49.198;-0.368;2023-05-15T04:43:20;21.83;;;12.30;;
49460;SDS011;35355;49.198;-0.368;2023-05-15T04:45:46;24.02;;;10.88;;
49460;SDS011;35355;49.198;-0.368;2023-05-15T04:48:11;21.08;;;11.93;;
49460;SDS011;35355;49.198;-0.368;2023-05-15T04:50:36;26.67;;;12.35;;
49460;SDS011;35355;49.198;-0.368;2023-05-15T04:53:02;26.83;;;12.43;;
49460;SDS011;35355;49.198;-0.368;2023-05-15T04:55:27;24.23;;;12.25;;
49460;SDS011;35355;49.198;-0.368;2023-05-15T04:57:53;29.88;;;12.25;;
49460;SDS011;35355;49.198;-0.368;2023-05-15T05:00:18;29.73;;;12.55;;
49460;SDS011;35355;49.198;-0.368;2023-05-15T05:02:44;22.50;;;12.10;;
49460;SDS011;35355;49.198;-0.368;2023-05-15T05:05:10;23.35;;;13.10;;
49460;SDS011;35355;49.198;-0.368;2023-05-15T05:07:35;19.35;;;10.77;;
49460;SDS011;35355;49.198;-0.368;2023-05-15T05:10:01;22.05;;;10.82;;
49460;SDS011;35355;49.198;-0.368;2023-05-15T05:12:28;19.00;;;12.35;;
49460;SDS011;35355;49.198;-0.368;2023-05-15T05:14:53;22.63;;;11.95;;
49460;SDS011;35355;49.198;-0.368;2023-05-15T05:17:20;22.02;;;11.70;;
49460;SDS011;35355;49.198;-0.368;2023-05-15T05:19:45;22.88;;;11.38;;
49460;SDS011;35355;49.198;-0.368;2023-05-15T05:22:11;22.50;;;11.13;;
49460;SDS011;35355;49.198;-0.368;2023-05-15T05:24:36;18.73;;;11.88;;
49460;SDS011;35355;49.198;-0.368;2023-05-15T05:27:02;21.20;;;11.70;;
49460;SDS011;35355;49.198;-0.368;2023-05-15T05:29:28;20.98;;;11.10;;
49460;SDS011;35355;49.198;-0.368;2023-05-15T05:31:54;22.30;;;10.90;;
49460;SDS011;35355;49.198;-0.368;2023-05-15T05:34:19;22.58;;;12.20;;
49460;SDS011;35355;49.198;-0.368;2023-05-15T05:36:45;21.35;;;9.88;;
49460;SDS011;35355;49.198;-0.368;2023-05-15T05:39:11;22.83;;;11.90;;
49460;SDS011;35355;49.198;-0.368;2023-05-15T05:41:36;23.73;;;12.02;;
49460;SDS011;35355;49.198;-0.368;2023-05-15T05:44:01;26.65;;;11.07;;
49460;SDS011;35355;49.198;-0.368;2023-05-15T05:46:27;16.95;;;10.13;;
49460;SDS011;35355;49.198;-0.368;2023-05-15T05:48:52;19.40;;;10.55;;
49460;SDS011;35355;49.198;-0.368;2023-05-15T05:51:19;21.73;;;11.82;;
49460;SDS011;35355;49.198;-0.368;2023-05-15T05:53:44;20.80;;;11.43;;
49460;SDS011;35355;49.198;-0.368;2023-05-15T05:56:10;22.88;;;11.48;;
49460;SDS011;35355;49.198;-0.368;2023-05-15T05:58:35;18.17;;;10.75;;
49460;SDS011;35355;49.198;-0.368;2023-05-15T06:01:00;18.77;;;10.07;;
49460;SDS011;35355;49.198;-0.368;2023-05-15T06:03:26;14.13;;;9.70;;
49460;SDS011;35355;49.198;-0.368;2023-05-15T06:05:52;19.05;;;10.68;;
49460;SDS011;35355;49.198;-0.368;2023-05-15T06:08:17;19.70;;;10.93;;
49460;SDS011;35355;49.198;-0.368;2023-05-15T06:10:43;17.98;;;11.27;;
49460;SDS011;35355;49.198;-0.368;2023-05-15T06:13:09;15.25;;;10.85;;
49460;SDS011;35355;49.198;-0.368;2023-05-15T06:15:35;17.25;;;8.98;;
49460;SDS011;35355;49.198;-0.368;2023-05-15T06:18:01;20.42;;;9.43;;
49460;SDS011;35355;49.198;-0.368;2023-05-15T06:20:26;15.18;;;10.43;;
49460;SDS011;35355;49.198;-0.368;2023-05-15T06:22:51;16.55;;;9.35;;
49460;SDS011;35355;49.198;-0.368;2023-05-15T06:25:17;19.50;;;9.77;;
49460;SDS011;35355;49.198;-0.368;2023-05-15T06:27:42;14.95;;;9.65;;
49460;SDS011;35355;49.198;-0.368;2023-05-15T06:30:08;15.80;;;8.88;;
49460;SDS011;35355;49.198;-0.368;2023-05-15T06:32:34;15.60;;;8.65;;
49460;SDS011;35355;49.198;-0.368;2023-05-15T06:35:00;17.23;;;8.95;;
49460;SDS011;35355;49.198;-0.368;2023-05-15T06:37:25;18.27;;;8.80;;
49460;SDS011;35355;49.198;-0.368;2023-05-15T06:39:52;13.60;;;8.75;;
49460;SDS011;35355;49.198;-0.368;2023-05-15T06:42:18;9.55;;;6.88;;
49460;SDS011;35355;49.198;-0.368;2023-05-15T06:44:43;13.48;;;6.63;;
49460;SDS011;35355;49.198;-0.368;2023-05-15T06:47:09;12.38;;;6.32;;
49460;SDS011;35355;49.198;-0.368;2023-05-15T06:49:34;10.52;;;6.70;;
49460;SDS011;35355;49.198;-0.368;2023-05-15T06:51:59;11.52;;;6.45;;
49460;SDS011;35355;49.198;-0.368;2023-05-15T06:54:25;8.23;;;6.05;;
49460;SDS011;35355;49.198;-0.368;2023-05-15T06:56:50;12.23;;;6.22;;
49460;SDS011;35355;49.198;-0.368;2023-05-15T06:59:16;17.25;;;6.88;;
49460;SDS011;35355;49.198;-0.368;2023-05-15T07:01:41;21.85;;;6.05;;
49460;SDS011;35355;49.198;-0.368;2023-05-15T07:04:06;18.38;;;6.97;;
49460;SDS011;35355;49.198;-0.368;2023-05-15T07:06:32;10.38;;;5.53;;
49460;SDS011;35355;49.198;-0.368;2023-05-15T07:08:58;10.20;;;4.13;;
49460;SDS011;35355;49.198;-0.368;2023-05-15T07:11:23;10.52;;;5.40;;
49460;SDS011;35355;49.198;-0.368;2023-05-15T07:13:49;9.05;;;4.43;;
49460;SDS011;35355;49.198;-0.368;2023-05-15T07:16:15;9.40;;;4.07;;
49460;SDS011;35355;49.198;-0.368;2023-05-15T07:18:40;8.00;;;3.90;;
49460;SDS011;35355;49.198;-0.368;2023-05-15T07:21:06;10.88;;;4.75;;
49460;SDS011;35355;49.198;-0.368;2023-05-15T07:23:31;9.57;;;5.05;;
49460;SDS011;35355;49.198;-0.368;2023-05-15T07:25:56;7.03;;;4.20;;
49460;SDS011;35355;49.198;-0.368;2023-05-15T07:28:22;11.50;;;5.15;;
49460;SDS011;35355;49.198;-0.368;2023-05-15T07:30:47;7.22;;;4.05;;
49460;SDS011;35355;49.198;-0.368;2023-05-15T07:33:12;8.73;;;4.60;;
49460;SDS011;35355;49.198;-0.368;2023-05-15T07:35:38;7.78;;;4.70;;
49460;SDS011;35355;49.198;-0.368;2023-05-15T07:38:03;10.40;;;5.07;;
49460;SDS011;35355;49.198;-0.368;2023-05-15T07:40:29;7.55;;;4.55;;
49460;SDS011;35355;49.198;-0.368;2023-05-15T07:42:54;8.80;;;5.00;;
49460;SDS011;35355;49.198;-0.368;2023-05-15T07:45:20;6.50;;;3.88;;
49460;SDS011;35355;49.198;-0.368;2023-05-15T07:47:48;6.25;;;3.90;;
49460;SDS011;35355;49.198;-0.368;2023-05-15T07:50:14;6.95;;;3.42;;
49460;SDS011;35355;49.198;-0.368;2023-05-15T07:52:40;4.55;;;3.00;;
49460;SDS011;35355;49.198;-0.368;2023-05-15T07:55:08;4.32;;;3.10;;
49460;SDS011;35355;49.198;-0.368;2023-05-15T07:57:34;4.78;;;3.10;;
49460;SDS011;35355;49.198;-0.368;2023-05-15T07:59:59;5.65;;;3.60;;
49460;SDS011;35355;49.198;-0.368;2023-05-15T08:02:29;8.50;;;3.63;;
49460;SDS011;35355;49.198;-0.368;2023-05-15T08:04:55;5.63;;;2.88;;
49460;SDS011;35355;49.198;-0.368;2023-05-15T08:07:20;6.38;;;2.83;;
49460;SDS011;35355;49.198;-0.368;2023-05-15T08:09:46;9.02;;;3.00;;
49460;SDS011;35355;49.198;-0.368;2023-05-15T08:12:18;4.07;;;2.50;;
49460;SDS011;35355;49.198;-0.368;2023-05-15T08:14:51;7.35;;;3.30;;
49460;SDS011;35355;49.198;-0.368;2023-05-15T08:19:44;8.23;;;3.05;;
49460;SDS011;35355;49.198;-0.368;2023-05-15T08:22:10;6.72;;;2.80;;
49460;SDS011;35355;49.198;-0.368;2023-05-15T08:24:35;10.32;;;3.35;;
49460;SDS011;35355;49.198;-0.368;2023-05-15T08:27:01;7.50;;;3.33;;
49460;SDS011;35355;49.198;-0.368;2023-05-15T08:29:29;6.32;;;3.13;;
49460;SDS011;35355;49.198;-0.368;2023-05-15T08:31:54;9.52;;;3.08;;
49460;SDS011;35355;49.198;-0.368;2023-05-15T08:34:19;6.03;;;2.92;;
49460;SDS011;35355;49.198;-0.368;2023-05-15T08:36:45;7.28;;;2.50;;
49460;SDS011;35355;49.198;-0.368;2023-05-15T08:39:10;4.43;;;2.03;;
49460;SDS011;35355;49.198;-0.368;2023-05-15T08:41:37;4.97;;;2.78;;
49460;SDS011;35355;49.198;-0.368;2023-05-15T08:44:11;5.47;;;2.22;;
49460;SDS011;35355;49.198;-0.368;2023-05-15T08:46:38;4.35;;;2.90;;
49460;SDS011;35355;49.198;-0.368;2023-05-15T08:49:05;2.85;;;1.83;;
49460;SDS011;35355;49.198;-0.368;2023-05-15T08:51:38;4.03;;;2.55;;
49460;SDS011;35355;49.198;-0.368;2023-05-15T08:54:04;3.47;;;2.38;;
49460;SDS011;35355;49.198;-0.368;2023-05-15T08:56:30;4.22;;;2.42;;
49460;SDS011;35355;49.198;-0.368;2023-05-15T08:58:55;6.15;;;2.92;;
49460;SDS011;35355;49.198;-0.368;2023-05-15T09:01:21;5.75;;;2.50;;
49460;SDS011;35355;49.198;-0.368;2023-05-15T09:03:46;6.20;;;2.70;;
49460;SDS011;35355;49.198;-0.368;2023-05-15T09:06:12;5.30;;;2.45;;
49460;SDS011;35355;49.198;-0.368;2023-05-15T09:08:38;7.55;;;3.40;;
49460;SDS011;35355;49.198;-0.368;2023-05-15T09:11:05;5.85;;;2.80;;
49460;SDS011;35355;49.198;-0.368;2023-05-15T09:13:32;5.47;;;2.97;;
49460;SDS011;35355;49.198;-0.368;2023-05-15T09:15:57;4.07;;;3.10;;
49460;SDS011;35355;49.198;-0.368;2023-05-15T09:18:23;6.45;;;3.80;;
49460;SDS011;35355;49.198;-0.368;2023-05-15T09:20:49;5.90;;;3.13;;
49460;SDS011;35355;49.198;-0.368;2023-05-15T09:23:24;7.55;;;2.88;;
49460;SDS011;35355;49.198;-0.368;2023-05-15T09:25:51;6.75;;;3.28;;
49460;SDS011;35355;49.198;-0.368;2023-05-15T09:28:28;3.95;;;2.72;;
49460;SDS011;35355;49.198;-0.368;2023-05-15T09:31:04;6.50;;;3.08;;
49460;SDS011;35355;49.198;-0.368;2023-05-15T09:33:30;5.82;;;2.75;;
49460;SDS011;35355;49.198;-0.368;2023-05-15T09:36:00;5.85;;;2.70;;
49460;SDS011;35355;49.198;-0.368;2023-05-15T09:38:26;8.70;;;3.50;;
49460;SDS011;35355;49.198;-0.368;2023-05-15T09:41:02;4.03;;;2.13;;
49460;SDS011;35355;49.198;-0.368;2023-05-15T09:43:32;5.88;;;2.25;;
49460;SDS011;35355;49.198;-0.368;2023-05-15T09:45:58;5.95;;;2.30;;
49460;SDS011;35355;49.198;-0.368;2023-05-15T09:48:24;4.80;;;2.00;;
49460;SDS011;35355;49.198;-0.368;2023-05-15T09:50:49;6.75;;;2.28;;
49460;SDS011;35355;49.198;-0.368;2023-05-15T09:53:15;2.58;;;1.50;;
49460;SDS011;35355;49.198;-0.368;2023-05-15T09:55:41;4.50;;;1.55;;
49460;SDS011;35355;49.198;-0.368;2023-05-15T09:58:08;2.80;;;0.90;;
49460;SDS011;35355;49.198;-0.368;2023-05-15T10:00:35;4.82;;;1.08;;
49460;SDS011;35355;49.198;-0.368;2023-05-15T10:03:02;2.95;;;0.90;;
49460;SDS011;35355;49.198;-0.368;2023-05-15T10:05:29;4.78;;;1.00;;
49460;SDS011;35355;49.198;-0.368;2023-05-15T10:07:55;3.75;;;1.10;;
49460;SDS011;35355;49.198;-0.368;2023-05-15T10:10:21;5.25;;;1.10;;
49460;SDS011;35355;49.198;-0.368;2023-05-15T10:12:48;5.65;;;0.70;;
49460;SDS011;35355;49.198;-0.368;2023-05-15T10:15:15;5.03;;;1.15;;
49460;SDS011;35355;49.198;-0.368;2023-05-15T10:17:42;2.17;;;1.35;;
49460;SDS011;35355;49.198;-0.368;2023-05-15T10:20:09;3.90;;;0.65;;
49460;SDS011;35355;49.198;-0.368;2023-05-15T10:22:39;5.03;;;1.20;;
49460;SDS011;35355;49.198;-0.368;2023-05-15T10:25:12;3.95;;;0.73;;
49460;SDS011;35355;49.198;-0.368;2023-05-15T10:27:41;3.35;;;0.98;;
49460;SDS011;35355;49.198;-0.368;2023-05-15T10:30:09;2.80;;;1.17;;
49460;SDS011;35355;49.198;-0.368;2023-05-15T10:32:35;2.58;;;1.02;;
49460;SDS011;35355;49.198;-0.368;2023-05-15T10:35:01;4.53;;;1.00;;
49460;SDS011;35355;49.198;-0.368;2023-05-15T10:37:28;5.50;;;1.27;;
49460;SDS011;35355;49.198;-0.368;2023-05-15T10:39:54;2.67;;;1.13;;
49460;SDS011;35355;49.198;-0.368;2023-05-15T10:42:21;2.45;;;1.35;;
49460;SDS011;35355;49.198;-0.368;2023-05-15T10:44:50;4.80;;;1.67;;
49460;SDS011;35355;49.198;-0.368;2023-05-15T10:47:17;4.22;;;1.42;;
49460;SDS011;35355;49.198;-0.368;2023-05-15T10:49:42;3.90;;;1.20;;
49460;SDS011;35355;49.198;-0.368;2023-05-15T10:52:07;3.03;;;1.25;;
49460;SDS011;35355;49.198;-0.368;2023-05-15T10:54:33;5.35;;;1.10;;
49460;SDS011;35355;49.198;-0.368;2023-05-15T10:56:59;5.55;;;1.20;;
49460;SDS011;35355;49.198;-0.368;2023-05-15T10:59:31;2.80;;;0.90;;
49460;SDS011;35355;49.198;-0.368;2023-05-15T11:05:03;1.15;;;0.82;;
49460;SDS011;35355;49.198;-0.368;2023-05-15T11:07:28;4.82;;;1.30;;
49460;SDS011;35355;49.198;-0.368;2023-05-15T11:09:54;5.82;;;1.38;;
49460;SDS011;35355;49.198;-0.368;2023-05-15T11:12:20;3.53;;;1.02;;
49460;SDS011;35355;49.198;-0.368;2023-05-15T11:17:24;5.05;;;1.15;;
49460;SDS011;35355;49.198;-0.368;2023-05-15T11:22:25;12.45;;;2.45;;
49460;SDS011;35355;49.198;-0.368;2023-05-15T11:25:04;6.90;;;1.98;;
49460;SDS011;35355;49.198;-0.368;2023-05-15T11:30:09;6.32;;;1.70;;
49460;SDS011;35355;49.198;-0.368;2023-05-15T11:32:43;8.15;;;2.63;;
49460;SDS011;35355;49.198;-0.368;2023-05-15T11:43:16;5.20;;;1.73;;
49460;SDS011;35355;49.198;-0.368;2023-05-15T11:45:47;3.60;;;1.25;;
49460;SDS011;35355;49.198;-0.368;2023-05-15T11:48:15;6.15;;;1.65;;
49460;SDS011;35355;49.198;-0.368;2023-05-15T11:50:41;10.20;;;1.77;;
49460;SDS011;35355;49.198;-0.368;2023-05-15T11:53:09;8.85;;;2.13;;
49460;SDS011;35355;49.198;-0.368;2023-05-15T11:55:35;7.63;;;2.25;;
49460;SDS011;35355;49.198;-0.368;2023-05-15T11:58:02;11.38;;;2.45;;
49460;SDS011;35355;49.198;-0.368;2023-05-15T12:00:29;6.10;;;2.15;;
49460;SDS011;35355;49.198;-0.368;2023-05-15T12:02:54;9.13;;;1.98;;
49460;SDS011;35355;49.198;-0.368;2023-05-15T12:05:20;7.50;;;2.20;;
49460;SDS011;35355;49.198;-0.368;2023-05-15T12:07:46;6.53;;;1.85;;
49460;SDS011;35355;49.198;-0.368;2023-05-15T12:10:12;10.38;;;2.08;;
49460;SDS011;35355;49.198;-0.368;2023-05-15T12:12:38;6.78;;;2.20;;
49460;SDS011;35355;49.198;-0.368;2023-05-15T12:15:07;4.07;;;1.30;;
49460;SDS011;35355;49.198;-0.368;2023-05-15T12:17:37;8.93;;;1.98;;
49460;SDS011;35355;49.198;-0.368;2023-05-15T12:20:07;7.95;;;2.20;;
49460;SDS011;35355;49.198;-0.368;2023-05-15T12:22:35;10.48;;;2.85;;
49460;SDS011;35355;49.198;-0.368;2023-05-15T12:25:01;14.93;;;3.65;;
49460;SDS011;35355;49.198;-0.368;2023-05-15T12:27:26;20.30;;;3.15;;
49460;SDS011;35355;49.198;-0.368;2023-05-15T12:29:52;16.98;;;3.03;;
49460;SDS011;35355;49.198;-0.368;2023-05-15T12:32:18;6.53;;;2.17;;
49460;SDS011;35355;49.198;-0.368;2023-05-15T12:34:44;5.95;;;2.45;;
49460;SDS011;35355;49.198;-0.368;2023-05-15T12:37:13;10.35;;;2.85;;
49460;SDS011;35355;49.198;-0.368;2023-05-15T12:39:52;5.03;;;1.90;;
49460;SDS011;35355;49.198;-0.368;2023-05-15T12:42:18;8.07;;;2.38;;
49460;SDS011;35355;49.198;-0.368;2023-05-15T12:44:44;8.52;;;3.40;;
49460;SDS011;35355;49.198;-0.368;2023-05-15T12:47:12;9.40;;;2.10;;
49460;SDS011;35355;49.198;-0.368;2023-05-15T12:49:39;7.65;;;2.40;;
49460;SDS011;35355;49.198;-0.368;2023-05-15T12:52:06;7.13;;;2.50;;
49460;SDS011;35355;49.198;-0.368;2023-05-15T12:54:37;9.23;;;1.73;;
49460;SDS011;35355;49.198;-0.368;2023-05-15T12:57:04;12.98;;;2.85;;
49460;SDS011;35355;49.198;-0.368;2023-05-15T12:59:29;23.98;;;3.13;;
49460;SDS011;35355;49.198;-0.368;2023-05-15T13:01:55;14.82;;;2.75;;
49460;SDS011;35355;49.198;-0.368;2023-05-15T13:04:20;8.63;;;2.20;;
49460;SDS011;35355;49.198;-0.368;2023-05-15T13:06:46;24.15;;;3.88;;
49460;SDS011;35355;49.198;-0.368;2023-05-15T13:09:11;10.95;;;2.70;;
49460;SDS011;35355;49.198;-0.368;2023-05-15T13:11:37;7.18;;;2.22;;
49460;SDS011;35355;49.198;-0.368;2023-05-15T13:14:07;11.80;;;1.95;;
49460;SDS011;35355;49.198;-0.368;2023-05-15T13:16:40;14.20;;;1.80;;
49460;SDS011;35355;49.198;-0.368;2023-05-15T13:19:07;7.47;;;2.03;;
49460;SDS011;35355;49.198;-0.368;2023-05-15T13:21:33;8.30;;;1.70;;
49460;SDS011;35355;49.198;-0.368;2023-05-15T13:23:59;9.27;;;2.80;;
49460;SDS011;35355;49.198;-0.368;2023-05-15T13:26:25;9.77;;;2.10;;
49460;SDS011;35355;49.198;-0.368;2023-05-15T13:28:50;7.53;;;1.90;;
49460;SDS011;35355;49.198;-0.368;2023-05-15T13:31:15;8.38;;;1.73;;
49460;SDS011;35355;49.198;-0.368;2023-05-15T13:33:41;5.38;;;1.92;;
49460;SDS011;35355;49.198;-0.368;2023-05-15T13:36:07;8.18;;;1.20;;
49460;SDS011;35355;49.198;-0.368;2023-05-15T13:38:32;8.25;;;1.40;;
49460;SDS011;35355;49.198;-0.368;2023-05-15T13:40:58;5.25;;;1.40;;
49460;SDS011;35355;49.198;-0.368;2023-05-15T13:43:23;11.18;;;1.52;;
49460;SDS011;35355;49.198;-0.368;2023-05-15T13:45:49;11.10;;;1.40;;
49460;SDS011;35355;49.198;-0.368;2023-05-15T13:48:14;12.68;;;1.48;;
49460;SDS011;35355;49.198;-0.368;2023-05-15T13:50:40;8.40;;;1.58;;
49460;SDS011;35355;49.198;-0.368;2023-05-15T13:53:07;8.43;;;1.58;;
49460;SDS011;35355;49.198;-0.368;2023-05-15T13:55:32;5.03;;;1.20;;
49460;SDS011;35355;49.198;-0.368;2023-05-15T13:57:58;9.50;;;1.33;;
49460;SDS011;35355;49.198;-0.368;2023-05-15T14:00:25;6.00;;;0.95;;
49460;SDS011;35355;49.198;-0.368;2023-05-15T14:02:50;8.98;;;2.22;;
49460;SDS011;35355;49.198;-0.368;2023-05-15T14:05:15;7.03;;;1.30;;
49460;SDS011;35355;49.198;-0.368;2023-05-15T14:07:41;8.35;;;0.70;;
49460;SDS011;35355;49.198;-0.368;2023-05-15T14:10:07;11.20;;;1.05;;
49460;SDS011;35355;49.198;-0.368;2023-05-15T14:12:33;6.78;;;0.70;;
49460;SDS011;35355;49.198;-0.368;2023-05-15T14:14:58;6.95;;;1.10;;
49460;SDS011;35355;49.198;-0.368;2023-05-15T14:17:24;10.40;;;1.15;;
49460;SDS011;35355;49.198;-0.368;2023-05-15T14:19:51;6.55;;;1.25;;
49460;SDS011;35355;49.198;-0.368;2023-05-15T14:22:16;6.93;;;0.63;;
49460;SDS011;35355;49.198;-0.368;2023-05-15T14:24:42;4.95;;;0.70;;
49460;SDS011;35355;49.198;-0.368;2023-05-15T14:27:07;10.70;;;1.25;;
49460;SDS011;35355;49.198;-0.368;2023-05-15T14:29:33;14.90;;;2.10;;
49460;SDS011;35355;49.198;-0.368;2023-05-15T14:31:58;19.45;;;1.13;;
49460;SDS011;35355;49.198;-0.368;2023-05-15T14:34:23;4.57;;;0.90;;
49460;SDS011;35355;49.198;-0.368;2023-05-15T14:36:49;8.57;;;1.77;;
49460;SDS011;35355;49.198;-0.368;2023-05-15T14:39:15;5.97;;;0.93;;
49460;SDS011;35355;49.198;-0.368;2023-05-15T14:41:41;9.07;;;1.13;;
49460;SDS011;35355;49.198;-0.368;2023-05-15T14:44:07;7.35;;;1.23;;
49460;SDS011;35355;49.198;-0.368;2023-05-15T14:46:33;6.15;;;0.50;;
49460;SDS011;35355;49.198;-0.368;2023-05-15T14:49:00;3.08;;;0.88;;
49460;SDS011;35355;49.198;-0.368;2023-05-15T14:51:25;6.20;;;1.08;;
49460;SDS011;35355;49.198;-0.368;2023-05-15T14:53:51;1.90;;;0.50;;
49460;SDS011;35355;49.198;-0.368;2023-05-15T14:56:16;6.45;;;1.02;;
49460;SDS011;35355;49.198;-0.368;2023-05-15T14:58:41;6.72;;;1.10;;
49460;SDS011;35355;49.198;-0.368;2023-05-15T15:01:07;3.33;;;0.95;;